sensor_id;sensor_type;location;lat;lon;timestamp;P1;durP1;ratioP1;P2;durP2;ratioP2
49934;SDS011;39898;41.762;26.200;2023-12-20T00:01:46;60.17;;;26.58;;
49934;SDS011;39898;41.762;26.200;2023-12-20T00:04:12;60.25;;;23.85;;
49934;SDS011;39898;41.762;26.200;2023-12-20T00:06:39;53.63;;;24.45;;
49934;SDS011;39898;41.762;26.200;2023-12-20T00:09:06;52.22;;;25.13;;
49934;SDS011;39898;41.762;26.200;2023-12-20T00:11:32;52.38;;;25.38;;
49934;SDS011;39898;41.762;26.200;2023-12-20T00:13:59;42.67;;;21.92;;
49934;SDS011;39898;41.762;26.200;2023-12-20T00:16:26;40.72;;;20.65;;
49934;SDS011;39898;41.762;26.200;2023-12-20T00:18:52;40.65;;;18.88;;
49934;SDS011;39898;41.762;26.200;2023-12-20T00:21:19;39.65;;;17.27;;
49934;SDS011;39898;41.762;26.200;2023-12-20T00:23:46;38.17;;;19.08;;
49934;SDS011;39898;41.762;26.200;2023-12-20T00:26:12;40.70;;;17.55;;
49934;SDS011;39898;41.762;26.200;2023-12-20T00:28:39;42.10;;;18.05;;
49934;SDS011;39898;41.762;26.200;2023-12-20T00:31:05;39.88;;;16.88;;
49934;SDS011;39898;41.762;26.200;2023-12-20T00:33:32;37.00;;;18.73;;
49934;SDS011;39898;41.762;26.200;2023-12-20T00:35:59;39.00;;;19.73;;
49934;SDS011;39898;41.762;26.200;2023-12-20T00:38:25;49.40;;;24.02;;
49934;SDS011;39898;41.762;26.200;2023-12-20T00:40:52;46.17;;;22.13;;
49934;SDS011;39898;41.762;26.200;2023-12-20T00:43:19;47.83;;;22.83;;
49934;SDS011;39898;41.762;26.200;2023-12-20T00:45:45;51.17;;;21.98;;
49934;SDS011;39898;41.762;26.200;2023-12-20T00:48:12;53.58;;;22.85;;
49934;SDS011;39898;41.762;26.200;2023-12-20T00:50:39;46.50;;;23.02;;
49934;SDS011;39898;41.762;26.200;2023-12-20T00:53:05;45.40;;;23.08;;
49934;SDS011;39898;41.762;26.200;2023-12-20T00:55:32;42.90;;;20.63;;
49934;SDS011;39898;41.762;26.200;2023-12-20T00:57:59;46.15;;;21.17;;
49934;SDS011;39898;41.762;26.200;2023-12-20T01:00:26;43.10;;;20.20;;
49934;SDS011;39898;41.762;26.200;2023-12-20T01:02:53;48.60;;;19.93;;
49934;SDS011;39898;41.762;26.200;2023-12-20T01:05:20;48.78;;;20.42;;
49934;SDS011;39898;41.762;26.200;2023-12-20T01:07:49;42.10;;;20.73;;
49934;SDS011;39898;41.762;26.200;2023-12-20T01:10:16;39.53;;;20.17;;
49934;SDS011;39898;41.762;26.200;2023-12-20T01:12:43;39.42;;;19.75;;
49934;SDS011;39898;41.762;26.200;2023-12-20T01:15:10;38.87;;;17.80;;
49934;SDS011;39898;41.762;26.200;2023-12-20T01:17:37;35.57;;;18.27;;
49934;SDS011;39898;41.762;26.200;2023-12-20T01:20:04;38.92;;;17.80;;
49934;SDS011;39898;41.762;26.200;2023-12-20T01:22:31;40.50;;;19.60;;
49934;SDS011;39898;41.762;26.200;2023-12-20T01:24:58;42.33;;;20.13;;
49934;SDS011;39898;41.762;26.200;2023-12-20T01:27:24;39.35;;;18.45;;
49934;SDS011;39898;41.762;26.200;2023-12-20T01:29:51;40.97;;;18.10;;
49934;SDS011;39898;41.762;26.200;2023-12-20T01:32:17;42.13;;;18.42;;
49934;SDS011;39898;41.762;26.200;2023-12-20T01:34:44;39.63;;;19.08;;
49934;SDS011;39898;41.762;26.200;2023-12-20T01:37:11;44.83;;;20.23;;
49934;SDS011;39898;41.762;26.200;2023-12-20T01:39:37;42.45;;;20.17;;
49934;SDS011;39898;41.762;26.200;2023-12-20T01:42:04;40.08;;;19.38;;
49934;SDS011;39898;41.762;26.200;2023-12-20T01:44:31;45.25;;;20.10;;
49934;SDS011;39898;41.762;26.200;2023-12-20T01:46:57;48.65;;;20.85;;
49934;SDS011;39898;41.762;26.200;2023-12-20T01:49:24;44.17;;;20.67;;
49934;SDS011;39898;41.762;26.200;2023-12-20T01:51:51;55.58;;;24.83;;
49934;SDS011;39898;41.762;26.200;2023-12-20T01:54:18;41.73;;;19.60;;
49934;SDS011;39898;41.762;26.200;2023-12-20T01:56:45;56.90;;;23.92;;
49934;SDS011;39898;41.762;26.200;2023-12-20T01:59:12;50.70;;;21.05;;
49934;SDS011;39898;41.762;26.200;2023-12-20T02:01:39;56.20;;;24.33;;
49934;SDS011;39898;41.762;26.200;2023-12-20T02:04:05;47.88;;;23.60;;
49934;SDS011;39898;41.762;26.200;2023-12-20T02:06:32;55.45;;;24.52;;
49934;SDS011;39898;41.762;26.200;2023-12-20T02:09:00;49.83;;;22.13;;
49934;SDS011;39898;41.762;26.200;2023-12-20T02:11:27;47.67;;;22.63;;
49934;SDS011;39898;41.762;26.200;2023-12-20T02:13:53;47.70;;;24.00;;
49934;SDS011;39898;41.762;26.200;2023-12-20T02:16:21;69.88;;;26.98;;
49934;SDS011;39898;41.762;26.200;2023-12-20T02:18:48;49.25;;;21.98;;
49934;SDS011;39898;41.762;26.200;2023-12-20T02:21:15;41.80;;;21.03;;
49934;SDS011;39898;41.762;26.200;2023-12-20T02:23:41;42.50;;;18.83;;
49934;SDS011;39898;41.762;26.200;2023-12-20T02:26:08;41.20;;;18.35;;
49934;SDS011;39898;41.762;26.200;2023-12-20T02:28:34;39.58;;;18.90;;
49934;SDS011;39898;41.762;26.200;2023-12-20T02:31:01;26.20;;;12.77;;
49934;SDS011;39898;41.762;26.200;2023-12-20T02:33:28;39.15;;;16.90;;
49934;SDS011;39898;41.762;26.200;2023-12-20T02:35:55;31.15;;;16.20;;
49934;SDS011;39898;41.762;26.200;2023-12-20T02:38:21;32.30;;;15.60;;
49934;SDS011;39898;41.762;26.200;2023-12-20T02:40:48;36.97;;;16.85;;
49934;SDS011;39898;41.762;26.200;2023-12-20T02:43:15;42.78;;;19.30;;
49934;SDS011;39898;41.762;26.200;2023-12-20T02:45:42;51.40;;;20.45;;
49934;SDS011;39898;41.762;26.200;2023-12-20T02:48:09;53.40;;;21.88;;
49934;SDS011;39898;41.762;26.200;2023-12-20T02:50:36;48.63;;;22.45;;
49934;SDS011;39898;41.762;26.200;2023-12-20T02:53:02;48.22;;;22.45;;
49934;SDS011;39898;41.762;26.200;2023-12-20T02:55:29;46.45;;;20.17;;
49934;SDS011;39898;41.762;26.200;2023-12-20T02:57:56;54.25;;;23.33;;
49934;SDS011;39898;41.762;26.200;2023-12-20T03:00:22;44.25;;;20.23;;
49934;SDS011;39898;41.762;26.200;2023-12-20T03:02:49;50.72;;;21.48;;
49934;SDS011;39898;41.762;26.200;2023-12-20T03:05:16;50.30;;;22.63;;
49934;SDS011;39898;41.762;26.200;2023-12-20T03:07:43;46.93;;;20.97;;
49934;SDS011;39898;41.762;26.200;2023-12-20T03:10:10;44.60;;;19.20;;
49934;SDS011;39898;41.762;26.200;2023-12-20T03:15:15;47.58;;;20.65;;
49934;SDS011;39898;41.762;26.200;2023-12-20T03:17:42;40.78;;;19.83;;
49934;SDS011;39898;41.762;26.200;2023-12-20T03:20:09;48.42;;;19.65;;
49934;SDS011;39898;41.762;26.200;2023-12-20T03:22:35;50.70;;;20.77;;
49934;SDS011;39898;41.762;26.200;2023-12-20T03:25:02;39.25;;;18.10;;
49934;SDS011;39898;41.762;26.200;2023-12-20T03:27:29;39.38;;;19.23;;
49934;SDS011;39898;41.762;26.200;2023-12-20T03:29:56;38.03;;;17.15;;
49934;SDS011;39898;41.762;26.200;2023-12-20T03:32:22;42.60;;;20.33;;
49934;SDS011;39898;41.762;26.200;2023-12-20T03:34:49;47.35;;;20.80;;
49934;SDS011;39898;41.762;26.200;2023-12-20T03:37:16;57.70;;;24.83;;
49934;SDS011;39898;41.762;26.200;2023-12-20T03:39:43;50.53;;;24.65;;
49934;SDS011;39898;41.762;26.200;2023-12-20T03:42:09;69.43;;;31.80;;
49934;SDS011;39898;41.762;26.200;2023-12-20T03:44:38;62.80;;;28.55;;
49934;SDS011;39898;41.762;26.200;2023-12-20T03:47:05;66.50;;;32.17;;
49934;SDS011;39898;41.762;26.200;2023-12-20T03:49:32;77.97;;;35.92;;
49934;SDS011;39898;41.762;26.200;2023-12-20T03:51:59;65.45;;;29.17;;
49934;SDS011;39898;41.762;26.200;2023-12-20T03:54:25;61.50;;;25.42;;
49934;SDS011;39898;41.762;26.200;2023-12-20T03:56:52;45.13;;;22.10;;
49934;SDS011;39898;41.762;26.200;2023-12-20T03:59:19;55.92;;;23.73;;
49934;SDS011;39898;41.762;26.200;2023-12-20T04:01:46;62.55;;;25.13;;
49934;SDS011;39898;41.762;26.200;2023-12-20T04:04:13;61.05;;;29.73;;
49934;SDS011;39898;41.762;26.200;2023-12-20T04:06:40;75.18;;;36.75;;
49934;SDS011;39898;41.762;26.200;2023-12-20T04:09:07;70.97;;;29.35;;
49934;SDS011;39898;41.762;26.200;2023-12-20T04:11:36;64.63;;;26.52;;
49934;SDS011;39898;41.762;26.200;2023-12-20T04:14:03;55.17;;;25.75;;
49934;SDS011;39898;41.762;26.200;2023-12-20T04:16:31;51.38;;;22.50;;
49934;SDS011;39898;41.762;26.200;2023-12-20T04:18:58;52.30;;;22.90;;
49934;SDS011;39898;41.762;26.200;2023-12-20T04:21:24;46.55;;;21.17;;
49934;SDS011;39898;41.762;26.200;2023-12-20T04:23:51;47.15;;;20.55;;
49934;SDS011;39898;41.762;26.200;2023-12-20T04:26:18;51.25;;;21.83;;
49934;SDS011;39898;41.762;26.200;2023-12-20T04:28:44;47.55;;;23.70;;
49934;SDS011;39898;41.762;26.200;2023-12-20T04:31:11;68.78;;;29.95;;
49934;SDS011;39898;41.762;26.200;2023-12-20T04:33:38;81.97;;;36.47;;
49934;SDS011;39898;41.762;26.200;2023-12-20T04:36:04;116.55;;;45.45;;
49934;SDS011;39898;41.762;26.200;2023-12-20T04:38:31;106.55;;;42.72;;
49934;SDS011;39898;41.762;26.200;2023-12-20T04:40:58;104.78;;;42.15;;
49934;SDS011;39898;41.762;26.200;2023-12-20T04:43:24;94.45;;;39.10;;
49934;SDS011;39898;41.762;26.200;2023-12-20T04:45:51;90.68;;;37.22;;
49934;SDS011;39898;41.762;26.200;2023-12-20T04:48:18;78.47;;;32.35;;
49934;SDS011;39898;41.762;26.200;2023-12-20T04:50:45;71.10;;;32.42;;
49934;SDS011;39898;41.762;26.200;2023-12-20T04:53:11;73.45;;;31.05;;
49934;SDS011;39898;41.762;26.200;2023-12-20T04:55:38;48.10;;;23.70;;
49934;SDS011;39898;41.762;26.200;2023-12-20T04:58:05;47.45;;;21.20;;
49934;SDS011;39898;41.762;26.200;2023-12-20T05:00:32;38.90;;;20.30;;
49934;SDS011;39898;41.762;26.200;2023-12-20T05:02:59;46.05;;;19.77;;
49934;SDS011;39898;41.762;26.200;2023-12-20T05:05:26;79.05;;;30.83;;
49934;SDS011;39898;41.762;26.200;2023-12-20T05:07:53;95.68;;;41.17;;
49934;SDS011;39898;41.762;26.200;2023-12-20T05:10:19;201.52;;;74.43;;
49934;SDS011;39898;41.762;26.200;2023-12-20T05:12:46;311.15;;;117.00;;
49934;SDS011;39898;41.762;26.200;2023-12-20T05:15:13;241.93;;;103.18;;
49934;SDS011;39898;41.762;26.200;2023-12-20T05:17:39;109.85;;;52.70;;
49934;SDS011;39898;41.762;26.200;2023-12-20T05:20:07;128.30;;;61.63;;
49934;SDS011;39898;41.762;26.200;2023-12-20T05:22:34;59.40;;;25.98;;
49934;SDS011;39898;41.762;26.200;2023-12-20T05:25:00;74.25;;;32.85;;
49934;SDS011;39898;41.762;26.200;2023-12-20T05:27:27;79.10;;;36.78;;
49934;SDS011;39898;41.762;26.200;2023-12-20T05:29:53;90.65;;;40.55;;
49934;SDS011;39898;41.762;26.200;2023-12-20T05:32:24;83.10;;;39.20;;
49934;SDS011;39898;41.762;26.200;2023-12-20T05:34:51;62.28;;;30.73;;
49934;SDS011;39898;41.762;26.200;2023-12-20T05:37:18;65.07;;;29.83;;
49934;SDS011;39898;41.762;26.200;2023-12-20T05:39:45;69.43;;;32.75;;
49934;SDS011;39898;41.762;26.200;2023-12-20T05:42:12;64.80;;;30.73;;
49934;SDS011;39898;41.762;26.200;2023-12-20T05:44:38;58.15;;;27.10;;
49934;SDS011;39898;41.762;26.200;2023-12-20T05:47:05;71.93;;;30.40;;
49934;SDS011;39898;41.762;26.200;2023-12-20T05:49:31;46.28;;;23.77;;
49934;SDS011;39898;41.762;26.200;2023-12-20T05:51:58;41.53;;;18.92;;
49934;SDS011;39898;41.762;26.200;2023-12-20T05:54:25;38.90;;;18.10;;
49934;SDS011;39898;41.762;26.200;2023-12-20T05:56:51;33.55;;;16.33;;
49934;SDS011;39898;41.762;26.200;2023-12-20T05:59:18;35.35;;;16.80;;
49934;SDS011;39898;41.762;26.200;2023-12-20T06:01:44;66.60;;;29.20;;
49934;SDS011;39898;41.762;26.200;2023-12-20T06:04:11;66.25;;;31.98;;
49934;SDS011;39898;41.762;26.200;2023-12-20T06:06:41;99.85;;;46.83;;
49934;SDS011;39898;41.762;26.200;2023-12-20T06:09:09;95.35;;;40.80;;
49934;SDS011;39898;41.762;26.200;2023-12-20T06:11:35;68.03;;;32.60;;
49934;SDS011;39898;41.762;26.200;2023-12-20T06:14:02;115.47;;;42.45;;
49934;SDS011;39898;41.762;26.200;2023-12-20T06:16:28;107.25;;;42.20;;
49934;SDS011;39898;41.762;26.200;2023-12-20T06:18:55;113.07;;;46.55;;
49934;SDS011;39898;41.762;26.200;2023-12-20T06:21:22;140.35;;;58.63;;
49934;SDS011;39898;41.762;26.200;2023-12-20T06:23:48;147.30;;;64.88;;
49934;SDS011;39898;41.762;26.200;2023-12-20T06:26:15;155.30;;;63.00;;
49934;SDS011;39898;41.762;26.200;2023-12-20T06:28:42;137.38;;;57.70;;
49934;SDS011;39898;41.762;26.200;2023-12-20T06:31:09;145.45;;;57.67;;
49934;SDS011;39898;41.762;26.200;2023-12-20T06:33:36;112.53;;;50.75;;
49934;SDS011;39898;41.762;26.200;2023-12-20T06:36:02;92.47;;;41.53;;
49934;SDS011;39898;41.762;26.200;2023-12-20T06:38:29;90.23;;;40.53;;
49934;SDS011;39898;41.762;26.200;2023-12-20T06:40:56;105.15;;;45.13;;
49934;SDS011;39898;41.762;26.200;2023-12-20T06:43:25;63.10;;;26.50;;
49934;SDS011;39898;41.762;26.200;2023-12-20T06:46:11;42.67;;;19.58;;
49934;SDS011;39898;41.762;26.200;2023-12-20T06:48:39;43.42;;;19.50;;
49934;SDS011;39898;41.762;26.200;2023-12-20T06:53:34;66.47;;;26.63;;
49934;SDS011;39898;41.762;26.200;2023-12-20T06:56:00;63.55;;;28.17;;
49934;SDS011;39898;41.762;26.200;2023-12-20T06:58:27;64.00;;;27.85;;
49934;SDS011;39898;41.762;26.200;2023-12-20T07:00:53;66.88;;;26.10;;
49934;SDS011;39898;41.762;26.200;2023-12-20T07:03:20;59.55;;;26.20;;
49934;SDS011;39898;41.762;26.200;2023-12-20T07:05:47;54.05;;;24.63;;
49934;SDS011;39898;41.762;26.200;2023-12-20T07:08:13;58.22;;;25.85;;
49934;SDS011;39898;41.762;26.200;2023-12-20T07:10:41;56.17;;;26.67;;
49934;SDS011;39898;41.762;26.200;2023-12-20T07:13:08;61.53;;;28.73;;
49934;SDS011;39898;41.762;26.200;2023-12-20T07:15:35;76.43;;;34.60;;
49934;SDS011;39898;41.762;26.200;2023-12-20T07:18:03;73.93;;;35.95;;
49934;SDS011;39898;41.762;26.200;2023-12-20T07:20:30;82.13;;;35.45;;
49934;SDS011;39898;41.762;26.200;2023-12-20T07:22:57;87.80;;;38.95;;
49934;SDS011;39898;41.762;26.200;2023-12-20T07:25:23;84.25;;;37.03;;
49934;SDS011;39898;41.762;26.200;2023-12-20T07:27:50;124.70;;;48.90;;
49934;SDS011;39898;41.762;26.200;2023-12-20T07:30:17;108.65;;;47.33;;
49934;SDS011;39898;41.762;26.200;2023-12-20T07:32:44;112.60;;;42.40;;
49934;SDS011;39898;41.762;26.200;2023-12-20T07:35:11;91.75;;;38.97;;
49934;SDS011;39898;41.762;26.200;2023-12-20T07:37:38;76.93;;;36.17;;
49934;SDS011;39898;41.762;26.200;2023-12-20T07:40:05;83.55;;;37.38;;
49934;SDS011;39898;41.762;26.200;2023-12-20T07:42:31;84.23;;;38.40;;
49934;SDS011;39898;41.762;26.200;2023-12-20T07:44:58;83.23;;;37.33;;
49934;SDS011;39898;41.762;26.200;2023-12-20T07:47:25;88.68;;;36.15;;
49934;SDS011;39898;41.762;26.200;2023-12-20T07:49:52;94.82;;;41.05;;
49934;SDS011;39898;41.762;26.200;2023-12-20T07:52:19;91.18;;;42.53;;
49934;SDS011;39898;41.762;26.200;2023-12-20T07:54:46;108.40;;;46.35;;
49934;SDS011;39898;41.762;26.200;2023-12-20T07:57:12;107.07;;;49.60;;
49934;SDS011;39898;41.762;26.200;2023-12-20T07:59:39;93.75;;;44.80;;
49934;SDS011;39898;41.762;26.200;2023-12-20T08:02:06;101.20;;;43.85;;
49934;SDS011;39898;41.762;26.200;2023-12-20T08:04:33;84.30;;;41.27;;
49934;SDS011;39898;41.762;26.200;2023-12-20T08:07:00;85.13;;;40.10;;
49934;SDS011;39898;41.762;26.200;2023-12-20T08:09:27;87.20;;;39.80;;
49934;SDS011;39898;41.762;26.200;2023-12-20T08:11:53;82.03;;;37.42;;
49934;SDS011;39898;41.762;26.200;2023-12-20T08:14:20;76.95;;;36.38;;
49934;SDS011;39898;41.762;26.200;2023-12-20T08:16:46;80.03;;;34.55;;
49934;SDS011;39898;41.762;26.200;2023-12-20T08:19:13;71.20;;;34.72;;
49934;SDS011;39898;41.762;26.200;2023-12-20T08:21:40;79.32;;;35.47;;
49934;SDS011;39898;41.762;26.200;2023-12-20T08:24:07;73.90;;;35.28;;
49934;SDS011;39898;41.762;26.200;2023-12-20T08:26:34;94.40;;;46.27;;
49934;SDS011;39898;41.762;26.200;2023-12-20T08:29:00;142.52;;;62.80;;
49934;SDS011;39898;41.762;26.200;2023-12-20T08:31:28;107.43;;;44.42;;
49934;SDS011;39898;41.762;26.200;2023-12-20T08:33:55;112.47;;;46.85;;
49934;SDS011;39898;41.762;26.200;2023-12-20T08:36:22;89.65;;;40.78;;
49934;SDS011;39898;41.762;26.200;2023-12-20T08:38:50;86.75;;;42.15;;
49934;SDS011;39898;41.762;26.200;2023-12-20T08:41:17;87.45;;;42.88;;
49934;SDS011;39898;41.762;26.200;2023-12-20T08:43:43;85.40;;;39.33;;
49934;SDS011;39898;41.762;26.200;2023-12-20T08:46:10;83.20;;;38.15;;
49934;SDS011;39898;41.762;26.200;2023-12-20T08:48:38;78.53;;;35.53;;
49934;SDS011;39898;41.762;26.200;2023-12-20T08:51:05;67.70;;;35.60;;
49934;SDS011;39898;41.762;26.200;2023-12-20T08:53:35;71.13;;;34.70;;
49934;SDS011;39898;41.762;26.200;2023-12-20T08:56:01;64.03;;;30.73;;
49934;SDS011;39898;41.762;26.200;2023-12-20T08:58:28;57.25;;;28.30;;
49934;SDS011;39898;41.762;26.200;2023-12-20T09:00:55;72.05;;;30.85;;
49934;SDS011;39898;41.762;26.200;2023-12-20T09:03:22;51.53;;;26.13;;
49934;SDS011;39898;41.762;26.200;2023-12-20T09:05:48;54.03;;;25.85;;
49934;SDS011;39898;41.762;26.200;2023-12-20T09:08:15;45.15;;;23.60;;
49934;SDS011;39898;41.762;26.200;2023-12-20T09:10:41;46.28;;;23.98;;
49934;SDS011;39898;41.762;26.200;2023-12-20T09:13:08;58.35;;;21.83;;
49934;SDS011;39898;41.762;26.200;2023-12-20T09:15:35;46.50;;;22.58;;
49934;SDS011;39898;41.762;26.200;2023-12-20T09:18:02;46.70;;;24.55;;
49934;SDS011;39898;41.762;26.200;2023-12-20T09:22:58;42.67;;;23.73;;
49934;SDS011;39898;41.762;26.200;2023-12-20T09:25:24;53.17;;;27.98;;
49934;SDS011;39898;41.762;26.200;2023-12-20T09:30:19;45.53;;;23.60;;
49934;SDS011;39898;41.762;26.200;2023-12-20T09:32:53;44.42;;;23.98;;
49934;SDS011;39898;41.762;26.200;2023-12-20T09:35:20;55.42;;;24.08;;
49934;SDS011;39898;41.762;26.200;2023-12-20T09:37:47;45.22;;;22.95;;
49934;SDS011;39898;41.762;26.200;2023-12-20T09:40:14;46.63;;;23.67;;
49934;SDS011;39898;41.762;26.200;2023-12-20T09:45:10;42.63;;;22.58;;
49934;SDS011;39898;41.762;26.200;2023-12-20T09:47:40;39.80;;;20.83;;
49934;SDS011;39898;41.762;26.200;2023-12-20T09:50:07;49.35;;;21.77;;
49934;SDS011;39898;41.762;26.200;2023-12-20T09:52:34;39.25;;;19.60;;
49934;SDS011;39898;41.762;26.200;2023-12-20T09:55:03;29.48;;;17.27;;
49934;SDS011;39898;41.762;26.200;2023-12-20T09:57:32;42.40;;;20.90;;
49934;SDS011;39898;41.762;26.200;2023-12-20T09:59:58;40.75;;;21.73;;
49934;SDS011;39898;41.762;26.200;2023-12-20T10:02:25;50.63;;;22.98;;
49934;SDS011;39898;41.762;26.200;2023-12-20T10:04:56;42.03;;;20.70;;
49934;SDS011;39898;41.762;26.200;2023-12-20T10:07:22;33.92;;;18.77;;
49934;SDS011;39898;41.762;26.200;2023-12-20T10:09:51;41.95;;;21.02;;
49934;SDS011;39898;41.762;26.200;2023-12-20T10:12:20;57.70;;;26.02;;
49934;SDS011;39898;41.762;26.200;2023-12-20T10:14:47;40.83;;;20.50;;
49934;SDS011;39898;41.762;26.200;2023-12-20T10:17:14;39.40;;;20.10;;
49934;SDS011;39898;41.762;26.200;2023-12-20T10:19:42;49.05;;;23.50;;
49934;SDS011;39898;41.762;26.200;2023-12-20T10:22:10;56.97;;;24.30;;
49934;SDS011;39898;41.762;26.200;2023-12-20T10:24:41;40.97;;;20.75;;
49934;SDS011;39898;41.762;26.200;2023-12-20T10:27:08;42.20;;;20.20;;
49934;SDS011;39898;41.762;26.200;2023-12-20T10:29:35;49.22;;;22.08;;
49934;SDS011;39898;41.762;26.200;2023-12-20T10:32:23;80.63;;;30.92;;
49934;SDS011;39898;41.762;26.200;2023-12-20T10:34:51;45.40;;;22.50;;
49934;SDS011;39898;41.762;26.200;2023-12-20T10:37:18;55.35;;;26.02;;
49934;SDS011;39898;41.762;26.200;2023-12-20T10:39:52;53.58;;;24.92;;
49934;SDS011;39898;41.762;26.200;2023-12-20T10:42:22;57.47;;;25.73;;
49934;SDS011;39898;41.762;26.200;2023-12-20T10:44:49;53.00;;;25.48;;
49934;SDS011;39898;41.762;26.200;2023-12-20T10:47:17;41.63;;;22.60;;
49934;SDS011;39898;41.762;26.200;2023-12-20T10:49:44;48.13;;;25.50;;
49934;SDS011;39898;41.762;26.200;2023-12-20T10:52:11;50.17;;;28.25;;
49934;SDS011;39898;41.762;26.200;2023-12-20T10:54:41;51.47;;;31.27;;
49934;SDS011;39898;41.762;26.200;2023-12-20T10:57:08;56.95;;;27.48;;
49934;SDS011;39898;41.762;26.200;2023-12-20T10:59:36;59.25;;;28.83;;
49934;SDS011;39898;41.762;26.200;2023-12-20T11:02:05;53.85;;;23.98;;
49934;SDS011;39898;41.762;26.200;2023-12-20T11:07:13;42.47;;;23.45;;
49934;SDS011;39898;41.762;26.200;2023-12-20T11:09:43;48.50;;;24.92;;
49934;SDS011;39898;41.762;26.200;2023-12-20T11:12:18;51.30;;;24.88;;
49934;SDS011;39898;41.762;26.200;2023-12-20T11:14:54;49.15;;;25.50;;
49934;SDS011;39898;41.762;26.200;2023-12-20T11:17:29;53.63;;;28.55;;
49934;SDS011;39898;41.762;26.200;2023-12-20T11:22:27;44.90;;;26.52;;
49934;SDS011;39898;41.762;26.200;2023-12-20T11:25:04;51.08;;;28.25;;
49934;SDS011;39898;41.762;26.200;2023-12-20T11:27:31;60.13;;;29.75;;
49934;SDS011;39898;41.762;26.200;2023-12-20T11:29:58;59.33;;;31.20;;
49934;SDS011;39898;41.762;26.200;2023-12-20T11:34:53;61.85;;;30.23;;
49934;SDS011;39898;41.762;26.200;2023-12-20T11:37:20;54.45;;;29.98;;
49934;SDS011;39898;41.762;26.200;2023-12-20T11:39:54;56.97;;;29.95;;
49934;SDS011;39898;41.762;26.200;2023-12-20T11:42:21;79.10;;;42.33;;
49934;SDS011;39898;41.762;26.200;2023-12-20T11:44:47;57.17;;;30.15;;
49934;SDS011;39898;41.762;26.200;2023-12-20T11:47:14;57.45;;;29.88;;
49934;SDS011;39898;41.762;26.200;2023-12-20T11:49:42;49.38;;;27.40;;
49934;SDS011;39898;41.762;26.200;2023-12-20T11:52:09;51.92;;;27.42;;
49934;SDS011;39898;41.762;26.200;2023-12-20T11:54:38;62.55;;;28.48;;
49934;SDS011;39898;41.762;26.200;2023-12-20T11:57:05;62.88;;;30.17;;
49934;SDS011;39898;41.762;26.200;2023-12-20T11:59:32;74.82;;;37.13;;
49934;SDS011;39898;41.762;26.200;2023-12-20T12:01:58;188.40;;;89.35;;
49934;SDS011;39898;41.762;26.200;2023-12-20T12:04:27;206.65;;;93.18;;
49934;SDS011;39898;41.762;26.200;2023-12-20T12:06:54;122.10;;;59.60;;
49934;SDS011;39898;41.762;26.200;2023-12-20T12:09:21;86.65;;;39.90;;
49934;SDS011;39898;41.762;26.200;2023-12-20T12:11:48;85.53;;;43.10;;
49934;SDS011;39898;41.762;26.200;2023-12-20T12:14:14;111.32;;;49.55;;
49934;SDS011;39898;41.762;26.200;2023-12-20T12:16:41;65.47;;;33.80;;
49934;SDS011;39898;41.762;26.200;2023-12-20T12:19:19;69.05;;;36.45;;
49934;SDS011;39898;41.762;26.200;2023-12-20T12:21:46;79.93;;;36.10;;
49934;SDS011;39898;41.762;26.200;2023-12-20T12:24:13;68.88;;;35.75;;
49934;SDS011;39898;41.762;26.200;2023-12-20T12:26:39;70.80;;;37.53;;
49934;SDS011;39898;41.762;26.200;2023-12-20T12:29:09;67.88;;;36.83;;
49934;SDS011;39898;41.762;26.200;2023-12-20T12:31:36;64.18;;;34.60;;
49934;SDS011;39898;41.762;26.200;2023-12-20T12:34:03;75.47;;;36.92;;
49934;SDS011;39898;41.762;26.200;2023-12-20T12:36:30;85.15;;;41.95;;
49934;SDS011;39898;41.762;26.200;2023-12-20T12:38:57;72.63;;;36.75;;
49934;SDS011;39898;41.762;26.200;2023-12-20T12:41:24;64.28;;;31.65;;
49934;SDS011;39898;41.762;26.200;2023-12-20T12:43:51;82.60;;;40.33;;
49934;SDS011;39898;41.762;26.200;2023-12-20T12:46:17;87.32;;;46.83;;
49934;SDS011;39898;41.762;26.200;2023-12-20T12:48:44;91.13;;;47.78;;
49934;SDS011;39898;41.762;26.200;2023-12-20T12:51:12;87.60;;;41.42;;
49934;SDS011;39898;41.762;26.200;2023-12-20T12:53:40;81.10;;;43.17;;
49934;SDS011;39898;41.762;26.200;2023-12-20T12:56:07;104.78;;;49.05;;
49934;SDS011;39898;41.762;26.200;2023-12-20T13:01:01;135.25;;;61.03;;
49934;SDS011;39898;41.762;26.200;2023-12-20T13:03:30;110.07;;;53.58;;
49934;SDS011;39898;41.762;26.200;2023-12-20T13:05:57;138.48;;;61.13;;
49934;SDS011;39898;41.762;26.200;2023-12-20T13:08:23;114.25;;;52.40;;
49934;SDS011;39898;41.762;26.200;2023-12-20T13:10:50;107.80;;;48.88;;
49934;SDS011;39898;41.762;26.200;2023-12-20T13:13:17;120.95;;;63.28;;
49934;SDS011;39898;41.762;26.200;2023-12-20T13:15:44;97.90;;;45.38;;
49934;SDS011;39898;41.762;26.200;2023-12-20T13:18:20;95.20;;;46.85;;
49934;SDS011;39898;41.762;26.200;2023-12-20T13:20:48;91.65;;;43.58;;
49934;SDS011;39898;41.762;26.200;2023-12-20T13:23:15;100.33;;;43.80;;
49934;SDS011;39898;41.762;26.200;2023-12-20T13:25:45;208.63;;;91.75;;
49934;SDS011;39898;41.762;26.200;2023-12-20T13:28:13;195.93;;;101.28;;
49934;SDS011;39898;41.762;26.200;2023-12-20T13:30:41;125.13;;;60.28;;
49934;SDS011;39898;41.762;26.200;2023-12-20T13:33:07;127.75;;;57.50;;
49934;SDS011;39898;41.762;26.200;2023-12-20T13:35:34;113.63;;;54.33;;
49934;SDS011;39898;41.762;26.200;2023-12-20T13:38:01;101.50;;;47.70;;
49934;SDS011;39898;41.762;26.200;2023-12-20T13:40:27;102.32;;;46.00;;
49934;SDS011;39898;41.762;26.200;2023-12-20T13:42:55;105.65;;;48.90;;
49934;SDS011;39898;41.762;26.200;2023-12-20T13:45:22;99.72;;;47.67;;
49934;SDS011;39898;41.762;26.200;2023-12-20T13:47:48;91.28;;;41.90;;
49934;SDS011;39898;41.762;26.200;2023-12-20T13:50:16;114.20;;;50.13;;
49934;SDS011;39898;41.762;26.200;2023-12-20T13:52:43;120.10;;;59.63;;
49934;SDS011;39898;41.762;26.200;2023-12-20T13:55:09;114.82;;;56.00;;
49934;SDS011;39898;41.762;26.200;2023-12-20T13:57:36;113.75;;;55.67;;
49934;SDS011;39898;41.762;26.200;2023-12-20T14:00:20;121.68;;;59.30;;
49934;SDS011;39898;41.762;26.200;2023-12-20T14:02:47;120.07;;;55.35;;
49934;SDS011;39898;41.762;26.200;2023-12-20T14:05:14;149.18;;;74.53;;
49934;SDS011;39898;41.762;26.200;2023-12-20T14:07:44;203.35;;;89.38;;
49934;SDS011;39898;41.762;26.200;2023-12-20T14:12:39;100.63;;;45.92;;
49934;SDS011;39898;41.762;26.200;2023-12-20T14:15:06;91.38;;;43.65;;
49934;SDS011;39898;41.762;26.200;2023-12-20T14:17:38;114.13;;;50.08;;
49934;SDS011;39898;41.762;26.200;2023-12-20T14:20:05;144.93;;;65.40;;
49934;SDS011;39898;41.762;26.200;2023-12-20T14:24:59;142.38;;;60.95;;
49934;SDS011;39898;41.762;26.200;2023-12-20T14:27:26;143.57;;;64.22;;
49934;SDS011;39898;41.762;26.200;2023-12-20T14:29:54;228.20;;;96.35;;
49934;SDS011;39898;41.762;26.200;2023-12-20T14:32:21;150.93;;;66.68;;
49934;SDS011;39898;41.762;26.200;2023-12-20T14:34:47;126.30;;;55.70;;